KHPT/HPT METAR and TAF weather

Enter ICAO airport designator
Station Type Date Time Source
KHPT METAR 2021/09/23 23:15 UTC NOAA

KHPT 232315Z AUTO 16004KT 10SM CLR 21/03 A2996 RMK AO2


Station Type Date Time Source
KHPT Decoded METAR 2021/09/23 23:15 UTC NOAA

Station name not available
Sep 23, 2021 - 07:15 PM EDT / 2021.09.23 2315 UTC
Wind: from the SSE (160 degrees) at 5 MPH (4 KT):0
Visibility: 10 mile(s):0
Sky conditions: clear
Temperature: 69 F (21 C)
Dew Point: 37 F (3 C)
Relative Humidity: 30%
Pressure (altimeter): 29.96 in. Hg (1014 hPa)
ob: KHPT 232315Z AUTO 16004KT 10SM CLR 21/03 A2996 RMK AO2
cycle: 23

Station Type Date Time Source
KHPT TAF UTC NOAA

Error!

Example: see airport list